Lowell Highlands, MA

10 Minute Time Series

17-Jan-2019 06:30 PM

TimeTempHumidityDewpointBarometerWindSpeedWindGustWind DirRain
17-Jan-2019 12:10 AM28.1°F53%13.2°F30.143 inHg6 mph14 mph315° (NW)0.00 in
17-Jan-2019 12:20 AM27.7°F52%12.4°F30.149 inHg6 mph12 mph315° (NW)0.00 in
17-Jan-2019 12:30 AM27.3°F51%11.6°F30.157 inHg7 mph14 mph338° (NNW)0.00 in
17-Jan-2019 12:40 AM27.0°F49%10.4°F30.166 inHg7 mph15 mph315° (NW)0.00 in
17-Jan-2019 12:50 AM26.6°F46%8.6°F30.176 inHg6 mph15 mph315° (NW)0.00 in
17-Jan-2019 01:00 AM26.2°F44%7.3°F30.182 inHg6 mph10 mph315° (NW)0.00 in
17-Jan-2019 01:10 AM25.9°F46%8.0°F30.187 inHg6 mph12 mph315° (NW)0.00 in
17-Jan-2019 01:20 AM25.5°F47%8.1°F30.192 inHg7 mph13 mph315° (NW)0.00 in
17-Jan-2019 01:30 AM25.1°F47%7.7°F30.206 inHg6 mph11 mph338° (NNW)0.00 in
17-Jan-2019 01:40 AM24.7°F47%7.4°F30.211 inHg5 mph13 mph338° (NNW)0.00 in
17-Jan-2019 01:50 AM24.4°F49%8.0°F30.221 inHg6 mph12 mph338° (NNW)0.00 in
17-Jan-2019 02:00 AM23.6°F53%9.0°F30.229 inHg6 mph13 mph0° (N)0.00 in
17-Jan-2019 02:10 AM22.9°F53%8.4°F30.236 inHg6 mph11 mph0° (N)0.00 in
17-Jan-2019 02:20 AM22.4°F54%8.3°F30.241 inHg5 mph10 mph338° (NNW)0.00 in
17-Jan-2019 02:30 AM21.9°F54%7.8°F30.250 inHg6 mph13 mph315° (NW)0.00 in
17-Jan-2019 02:40 AM21.6°F53%7.1°F30.255 inHg5 mph12 mph0° (N)0.00 in
17-Jan-2019 02:50 AM21.3°F54%7.3°F30.262 inHg4 mph9 mph338° (NNW)0.00 in
17-Jan-2019 03:00 AM20.9°F53%6.5°F30.267 inHg5 mph9 mph338° (NNW)0.00 in
17-Jan-2019 03:10 AM20.4°F53%6.0°F30.270 inHg4 mph12 mph338° (NNW)0.00 in
17-Jan-2019 03:20 AM19.9°F53%5.6°F30.274 inHg5 mph10 mph338° (NNW)0.00 in
17-Jan-2019 03:30 AM19.3°F53%5.0°F30.281 inHg5 mph11 mph338° (NNW)0.00 in
17-Jan-2019 03:40 AM18.8°F53%4.5°F30.284 inHg3 mph9 mph338° (NNW)0.00 in
17-Jan-2019 03:50 AM18.3°F54%4.5°F30.287 inHg4 mph8 mph315° (NW)0.00 in
17-Jan-2019 04:00 AM17.9°F53%3.7°F30.292 inHg5 mph8 mph338° (NNW)0.00 in
17-Jan-2019 04:10 AM17.6°F54%3.8°F30.298 inHg4 mph10 mph338° (NNW)0.00 in
17-Jan-2019 04:20 AM17.3°F54%3.5°F30.302 inHg4 mph8 mph315° (NW)0.00 in
17-Jan-2019 04:30 AM17.1°F54%3.4°F30.306 inHg5 mph11 mph315° (NW)0.00 in
17-Jan-2019 04:40 AM16.8°F55%3.5°F30.310 inHg4 mph8 mph338° (NNW)0.00 in
17-Jan-2019 04:50 AM16.7°F55%3.4°F30.316 inHg5 mph10 mph315° (NW)0.00 in
17-Jan-2019 05:00 AM16.5°F56%3.6°F30.319 inHg3 mph7 mph338° (NNW)0.00 in
17-Jan-2019 05:10 AM16.3°F56%3.4°F30.320 inHg3 mph9 mph315° (NW)0.00 in
17-Jan-2019 05:20 AM16.0°F57%3.5°F30.323 inHg4 mph8 mph338° (NNW)0.00 in
17-Jan-2019 05:30 AM15.8°F57%3.3°F30.327 inHg3 mph6 mph338° (NNW)0.00 in
17-Jan-2019 05:40 AM15.6°F58%3.5°F30.327 inHg4 mph8 mph338° (NNW)0.00 in
17-Jan-2019 05:50 AM15.4°F58%3.3°F30.330 inHg4 mph9 mph315° (NW)0.00 in
17-Jan-2019 06:00 AM15.2°F58%3.1°F30.335 inHg4 mph7 mph338° (NNW)0.00 in
17-Jan-2019 06:10 AM14.9°F58%2.8°F30.334 inHg5 mph9 mph338° (NNW)0.00 in
17-Jan-2019 06:20 AM14.7°F58%2.6°F30.336 inHg4 mph9 mph338° (NNW)0.00 in
17-Jan-2019 06:30 AM14.4°F57%2.0°F30.339 inHg5 mph10 mph338° (NNW)0.00 in
17-Jan-2019 06:40 AM14.1°F57%1.7°F30.345 inHg4 mph9 mph338° (NNW)0.00 in
17-Jan-2019 06:50 AM13.9°F57%1.5°F30.351 inHg4 mph9 mph315° (NW)0.00 in
17-Jan-2019 07:00 AM13.6°F56%0.9°F30.352 inHg4 mph7 mph315° (NW)0.00 in
17-Jan-2019 07:10 AM13.5°F57%1.1°F30.356 inHg5 mph8 mph338° (NNW)0.00 in
17-Jan-2019 07:20 AM13.3°F58%1.3°F30.354 inHg5 mph8 mph338° (NNW)0.00 in
17-Jan-2019 07:30 AM13.0°F59%1.4°F30.358 inHg5 mph10 mph338° (NNW)0.00 in
17-Jan-2019 07:40 AM12.8°F59%1.2°F30.360 inHg5 mph9 mph338° (NNW)0.00 in
17-Jan-2019 07:50 AM12.7°F59%1.1°F30.363 inHg5 mph9 mph315° (NW)0.00 in
17-Jan-2019 08:00 AM12.8°F58%0.8°F30.369 inHg5 mph10 mph315° (NW)0.00 in
17-Jan-2019 08:10 AM13.0°F58%1.0°F30.375 inHg6 mph8 mph315° (NW)0.00 in
17-Jan-2019 08:20 AM13.2°F57%0.9°F30.381 inHg5 mph10 mph338° (NNW)0.00 in
17-Jan-2019 08:30 AM13.5°F55%0.4°F30.385 inHg5 mph8 mph292° (WNW)0.00 in
17-Jan-2019 08:40 AM13.7°F54%0.2°F30.384 inHg6 mph10 mph315° (NW)0.00 in
17-Jan-2019 08:50 AM14.1°F54%0.5°F30.386 inHg6 mph10 mph315° (NW)0.00 in
17-Jan-2019 09:00 AM14.7°F53%0.7°F30.391 inHg4 mph10 mph292° (WNW)0.00 in
17-Jan-2019 09:10 AM14.9°F51%0.1°F30.400 inHg6 mph10 mph292° (WNW)0.00 in
17-Jan-2019 09:20 AM15.3°F51%0.5°F30.404 inHg5 mph10 mph315° (NW)0.00 in
17-Jan-2019 09:30 AM15.7°F50%0.4°F30.407 inHg5 mph10 mph315° (NW)0.00 in
17-Jan-2019 09:40 AM16.2°F49%0.4°F30.408 inHg5 mph9 mph315° (NW)0.00 in
17-Jan-2019 09:50 AM16.6°F47%-0.1°F30.411 inHg6 mph12 mph292° (WNW)0.00 in
17-Jan-2019 10:00 AM17.0°F46%-0.2°F30.412 inHg5 mph11 mph315° (NW)0.00 in
17-Jan-2019 10:10 AM17.6°F45%-0.1°F30.411 inHg5 mph11 mph338° (NNW)0.00 in
17-Jan-2019 10:20 AM18.2°F44%-0.0°F30.412 inHg5 mph10 mph292° (WNW)0.00 in
17-Jan-2019 10:30 AM18.4°F42%-0.8°F30.410 inHg6 mph11 mph338° (NNW)0.00 in
17-Jan-2019 10:40 AM18.9°F41%-0.9°F30.407 inHg6 mph11 mph315° (NW)0.00 in
17-Jan-2019 10:50 AM19.5°F40%-0.8°F30.403 inHg5 mph11 mph338° (NNW)0.00 in
17-Jan-2019 11:00 AM19.8°F39%-1.1°F30.396 inHg6 mph14 mph338° (NNW)0.00 in
17-Jan-2019 11:10 AM20.2°F38%-1.3°F30.393 inHg5 mph10 mph315° (NW)0.00 in
17-Jan-2019 11:20 AM21.1°F36%-1.6°F30.390 inHg4 mph9 mph315° (NW)0.00 in
17-Jan-2019 11:30 AM21.4°F36%-1.4°F30.389 inHg5 mph9 mph315° (NW)0.00 in
17-Jan-2019 11:40 AM22.2°F34%-1.8°F30.379 inHg4 mph10 mph338° (NNW)0.00 in
17-Jan-2019 11:50 AM22.5°F33%-2.2°F30.371 inHg4 mph10 mph338° (NNW)0.00 in
17-Jan-2019 12:00 PM23.0°F33%-1.8°F30.367 inHg4 mph7 mph292° (WNW)0.00 in
17-Jan-2019 12:10 PM23.1°F32%-2.3°F30.360 inHg4 mph10 mph292° (WNW)0.00 in
17-Jan-2019 12:20 PM23.8°F33%-1.1°F30.358 inHg3 mph10 mph0° (N)0.00 in
17-Jan-2019 12:30 PM23.9°F33%-1.0°F30.359 inHg3 mph7 mph338° (NNW)0.00 in
17-Jan-2019 12:40 PM24.4°F32%-1.2°F30.353 inHg3 mph7 mph315° (NW)0.00 in
17-Jan-2019 12:50 PM24.9°F32%-0.7°F30.352 inHg3 mph8 mph225° (SW)0.00 in
17-Jan-2019 01:00 PM25.4°F31%-1.0°F30.346 inHg3 mph7 mph338° (NNW)0.00 in
17-Jan-2019 01:10 PM25.8°F31%-0.6°F30.342 inHg3 mph6 mph292° (WNW)0.00 in
17-Jan-2019 01:20 PM25.9°F30%-1.2°F30.342 inHg3 mph8 mph292° (WNW)0.00 in
17-Jan-2019 01:30 PM26.5°F30%-0.7°F30.342 inHg3 mph5 mph248° (WSW)0.00 in
17-Jan-2019 01:40 PM26.2°F30%-1.0°F30.342 inHg3 mph6 mph22° (NNE)0.00 in
17-Jan-2019 01:50 PM26.9°F30%-0.3°F30.336 inHg1 mph5 mph202° (SSW)0.00 in
17-Jan-2019 02:00 PM27.2°F30%-0.1°F30.335 inHg2 mph5 mph338° (NNW)0.00 in
17-Jan-2019 02:10 PM26.8°F29%-1.1°F30.334 inHg2 mph5 mph22° (NNE)0.00 in
17-Jan-2019 02:20 PM26.9°F30%-0.3°F30.332 inHg1 mph4 mph45° (NE)0.00 in
17-Jan-2019 02:30 PM27.4°F29%-0.6°F30.332 inHg2 mph4 mph248° (WSW)0.00 in
17-Jan-2019 02:40 PM27.5°F30%0.2°F30.331 inHg1 mph2 mph0° (N)0.00 in
17-Jan-2019 02:50 PM27.6°F29%-0.5°F30.332 inHg1 mph3 mph135° (SE)0.00 in
17-Jan-2019 03:00 PM27.5°F29%-0.5°F30.325 inHg2 mph6 mph22° (NNE)0.00 in
17-Jan-2019 03:10 PM27.1°F30%-0.2°F30.327 inHg2 mph4 mph112° (ESE)0.00 in
17-Jan-2019 03:20 PM27.0°F30%-0.3°F30.325 inHg2 mph3 mph112° (ESE)0.00 in
17-Jan-2019 03:30 PM26.9°F29%-1.1°F30.321 inHg1 mph3 mph68° (ENE)0.00 in
17-Jan-2019 03:40 PM27.2°F30%-0.1°F30.319 inHg1 mph3 mph135° (SE)0.00 in
17-Jan-2019 03:50 PM27.4°F29%-0.6°F30.317 inHg2 mph5 mph112° (ESE)0.00 in
17-Jan-2019 04:00 PM27.4°F29%-0.6°F30.316 inHg1 mph3 mph68° (ENE)0.00 in
17-Jan-2019 04:10 PM27.2°F30%-0.1°F30.314 inHg1 mph4 mph112° (ESE)0.00 in
17-Jan-2019 04:20 PM27.0°F31%0.4°F30.316 inHg1 mph3 mph135° (SE)0.00 in
17-Jan-2019 04:30 PM26.5°F31%-0.0°F30.318 inHg1 mph3 mph112° (ESE)0.00 in
17-Jan-2019 04:40 PM26.2°F32%0.4°F30.318 inHg1 mph3 mph135° (SE)0.00 in
17-Jan-2019 04:50 PM25.9°F32%0.1°F30.320 inHg1 mph3 mph112° (ESE)0.00 in
17-Jan-2019 05:00 PM25.6°F32%-0.1°F30.323 inHg1 mph3 mph112° (ESE)0.00 in
17-Jan-2019 05:10 PM25.2°F33%0.2°F30.324 inHg1 mph3 mph112° (ESE)0.00 in
17-Jan-2019 05:20 PM25.1°F33%0.1°F30.325 inHg1 mph4 mph112° (ESE)0.00 in
17-Jan-2019 05:30 PM24.9°F33%-0.1°F30.328 inHg1 mph5 mph112° (ESE)0.00 in
17-Jan-2019 05:40 PM24.7°F33%-0.3°F30.329 inHg2 mph5 mph112° (ESE)0.00 in
17-Jan-2019 05:50 PM24.5°F33%-0.4°F30.329 inHg1 mph3 mph90° (E)0.00 in
17-Jan-2019 06:00 PM24.4°F34%0.1°F30.329 inHg1 mph4 mph90° (E)0.00 in
17-Jan-2019 06:10 PM24.3°F34%0.0°F30.326 inHg1 mph3 mph112° (ESE)0.00 in
17-Jan-2019 06:20 PM24.3°F34%0.0°F30.327 inHg1 mph4 mph135° (SE)0.00 in
17-Jan-2019 06:30 PM24.1°F34%-0.2°F30.326 inHg1 mph3 mph90° (E)0.00 in